Time;durP1;ratioP1;P1;durP2;ratioP2;P2;SDS_P1;SDS_P2;PMS_P1;PMS_P2;Temp;Humidity;BMP_temperature;BMP_pressure;BME280_temperature;BME280_humidity;BME280_pressure;Samples;Min_cycle;Max_cycle;Signal;HPM_P1;HPM_P2
2022/06/17 00:00:51;;;;;;;7.00;1.57;;;20.30;66.30;;;;;;5007752;28;20687;-84
2022/06/17 00:03:18;;;;;;;5.90;2.03;;;20.30;66.70;;;;;;5007614;28;21045;-83
2022/06/17 00:05:45;;;;;;;1.83;1.73;;;20.20;66.70;;;;;;5008564;28;20639;-82
2022/06/17 00:08:17;;;;;;;2.00;1.90;;;20.20;66.90;;;;;;5004454;28;20997;-83
2022/06/17 00:10:45;;;;;;;2.10;1.73;;;20.20;66.70;;;;;;5008579;28;20658;-82
2022/06/17 00:13:15;;;;;;;1.93;1.80;;;20.20;66.70;;;;;;5005108;28;20641;-81
2022/06/17 00:15:42;;;;;;;2.20;2.10;;;20.20;68.00;;;;;;5007867;28;20610;-81
2022/06/17 00:18:09;;;;;;;2.90;1.77;;;20.20;68.50;;;;;;5007074;28;20634;-82
2022/06/17 00:20:37;;;;;;;2.40;2.27;;;20.20;69.50;;;;;;5007114;28;20774;-82
2022/06/17 00:23:04;;;;;;;3.10;2.80;;;20.10;68.60;;;;;;5006011;28;20660;-81
2022/06/17 00:25:33;;;;;;;2.30;1.77;;;20.10;67.60;;;;;;5005732;28;20619;-83
2022/06/17 00:28:02;;;;;;;1.87;1.77;;;20.00;67.50;;;;;;5005074;28;20642;-82
2022/06/17 00:30:32;;;;;;;2.33;2.13;;;20.00;67.50;;;;;;5007604;28;20710;-81
2022/06/17 00:33:02;;;;;;;4.77;2.43;;;19.90;66.60;;;;;;5007497;28;20623;-81
2022/06/17 00:35:35;;;;;;;3.77;1.87;;;19.80;66.80;;;;;;5006876;28;20612;-82
2022/06/17 00:38:03;;;;;;;3.03;2.40;;;19.80;66.60;;;;;;5004508;28;20639;-83
2022/06/17 00:40:33;;;;;;;2.73;2.10;;;19.70;67.20;;;;;;5003409;28;21270;-82
2022/06/17 00:43:05;;;;;;;2.13;1.93;;;19.60;68.00;;;;;;5003531;28;20664;-83
2022/06/17 00:45:36;;;;;;;2.60;2.20;;;19.60;69.00;;;;;;5003034;28;20620;-83
2022/06/17 00:48:07;;;;;;;1.97;1.87;;;19.50;69.50;;;;;;5001835;28;20628;-80
2022/06/17 00:50:39;;;;;;;2.57;1.80;;;19.50;70.50;;;;;;5000501;28;20669;-81
2022/06/17 00:53:17;;;;;;;2.67;1.73;;;19.50;71.30;;;;;;5006110;28;20618;-83
2022/06/17 00:55:46;;;;;;;2.43;2.20;;;19.60;72.90;;;;;;5007623;28;21181;-83
2022/06/17 00:58:18;;;;;;;2.40;1.90;;;19.60;73.30;;;;;;4999395;28;20635;-83
2022/06/17 01:00:48;;;;;;;1.67;1.57;;;19.70;74.40;;;;;;5002442;28;20686;-82
2022/06/17 01:03:19;;;;;;;2.33;2.13;;;19.70;75.30;;;;;;5001554;28;20660;-83
2022/06/17 01:05:50;;;;;;;2.33;2.17;;;19.70;76.00;;;;;;5002732;28;20627;-82
2022/06/17 01:11:03;;;;;;;2.17;1.97;;;19.50;75.00;;;;;;5009411;28;20699;-84
2022/06/17 01:13:32;;;;;;;3.40;2.33;;;19.60;75.40;;;;;;5009826;28;20628;-83
2022/06/17 01:15:59;;;;;;;2.17;1.97;;;19.50;75.70;;;;;;5006175;28;20632;-82
2022/06/17 01:18:28;;;;;;;2.53;2.07;;;19.50;77.10;;;;;;5010321;28;20651;-83
2022/06/17 01:20:56;;;;;;;2.10;1.90;;;19.50;76.40;;;;;;5006467;28;20645;-82
2022/06/17 01:23:26;;;;;;;2.20;2.10;;;19.50;76.90;;;;;;5002373;28;20637;-82
2022/06/17 01:25:53;;;;;;;5.80;2.20;;;19.50;77.30;;;;;;5006207;28;20640;-83
2022/06/17 01:28:20;;;;;;;2.40;2.20;;;18.90;77.30;;;;;;5007226;28;20907;-84
2022/06/17 01:30:52;;;;;;;6.60;3.20;;;18.40;80.10;;;;;;5009393;28;20734;-83
2022/06/17 01:33:23;;;;;;;3.30;2.40;;;18.30;82.20;;;;;;5008009;28;20972;-82
2022/06/17 01:35:54;;;;;;;2.23;2.03;;;18.30;83.80;;;;;;5006417;28;20630;-82
2022/06/17 01:38:23;;;;;;;3.03;1.70;;;18.50;84.20;;;;;;5010800;28;21653;-84
2022/06/17 01:40:52;;;;;;;3.30;2.10;;;18.70;85.80;;;;;;5009581;28;20670;-84
2022/06/17 01:43:20;;;;;;;1.93;1.83;;;18.80;86.20;;;;;;5007859;28;20651;-84
2022/06/17 01:45:55;;;;;;;3.13;2.67;;;18.90;86.70;;;;;;5006799;28;20634;-83
2022/06/17 01:48:25;;;;;;;2.80;2.37;;;19.00;87.20;;;;;;5009315;28;20997;-84
2022/06/17 01:50:54;;;;;;;10.03;2.13;;;18.90;87.20;;;;;;5008343;28;20651;-82
2022/06/17 01:53:27;;;;;;;3.70;2.13;;;18.90;88.30;;;;;;5005187;28;20621;-80
2022/06/17 01:56:03;;;;;;;3.03;1.90;;;18.90;89.50;;;;;;5012723;28;20628;-80
2022/06/17 01:58:34;;;;;;;2.70;2.10;;;18.90;90.10;;;;;;5010782;28;20623;-80
2022/06/17 02:01:03;;;;;;;1.93;1.83;;;18.90;90.60;;;;;;5009695;28;21055;-81
2022/06/17 02:03:35;;;;;;;2.57;2.37;;;18.90;90.80;;;;;;5006627;28;21234;-81
2022/06/17 02:06:08;;;;;;;2.67;2.23;;;19.00;90.80;;;;;;5006068;28;20632;-81
2022/06/17 02:08:35;;;;;;;2.17;2.07;;;18.90;90.70;;;;;;5014057;28;20614;-80
2022/06/17 02:11:06;;;;;;;3.33;2.10;;;18.30;90.90;;;;;;5010512;28;20681;-81
2022/06/17 02:13:34;;;;;;;2.30;1.90;;;18.10;92.50;;;;;;5010421;28;20985;-81
2022/06/17 02:16:02;;;;;;;3.10;2.40;;;18.20;93.60;;;;;;5007875;28;20636;-81
2022/06/17 02:18:29;;;;;;;3.20;2.97;;;18.30;93.80;;;;;;5008590;28;20636;-80
2022/06/17 02:20:59;;;;;;;2.20;1.70;;;18.30;93.80;;;;;;5009258;28;20846;-81
2022/06/17 02:23:28;;;;;;;2.43;2.23;;;18.40;94.20;;;;;;5008416;28;20694;-81
2022/06/17 02:25:57;;;;;;;2.20;2.10;;;18.50;94.10;;;;;;5007781;28;21180;-81
2022/06/17 02:28:29;;;;;;;3.10;2.23;;;18.50;94.00;;;;;;5010454;28;20640;-81
2022/06/17 02:30:56;;;;;;;2.30;2.10;;;18.50;94.10;;;;;;5007213;28;20758;-82
2022/06/17 02:33:24;;;;;;;2.17;2.03;;;18.50;94.20;;;;;;5008956;28;20614;-82
2022/06/17 02:35:55;;;;;;;2.10;2.00;;;18.50;94.70;;;;;;5008712;28;20629;-83
2022/06/17 02:38:25;;;;;;;2.07;1.87;;;18.60;94.90;;;;;;5010428;28;20657;-82
2022/06/17 02:40:55;;;;;;;2.33;2.10;;;18.60;95.10;;;;;;5004257;28;20652;-83
2022/06/17 02:43:26;;;;;;;2.00;1.90;;;18.50;95.00;;;;;;5007986;28;20667;-83
2022/06/17 02:45:59;;;;;;;2.97;2.63;;;18.50;95.40;;;;;;5004875;28;20630;-83
2022/06/17 02:48:28;;;;;;;3.43;2.47;;;18.50;95.60;;;;;;5009450;28;20639;-83
2022/06/17 02:51:00;;;;;;;2.37;2.20;;;18.50;95.60;;;;;;5008232;28;20655;-80
2022/06/17 02:53:30;;;;;;;1.97;1.87;;;18.40;95.90;;;;;;5007236;28;20647;-80
2022/06/17 02:55:58;;;;;;;5.50;3.00;;;18.40;95.60;;;;;;5009826;28;20654;-80
2022/06/17 02:58:38;;;;;;;3.87;2.77;;;17.70;96.70;;;;;;5007582;28;20624;-80
2022/06/17 03:01:13;;;;;;;2.80;2.60;;;17.40;98.60;;;;;;5007911;28;21263;-83
2022/06/17 03:03:40;;;;;;;4.50;2.80;;;17.50;99.20;;;;;;5019369;28;20666;-81
2022/06/17 03:06:10;;;;;;;3.50;3.03;;;17.70;99.20;;;;;;5004580;28;20640;-82
2022/06/17 03:08:39;;;;;;;2.70;2.50;;;17.90;99.10;;;;;;5009775;28;20630;-84
2022/06/17 03:11:09;;;;;;;4.60;2.67;;;18.00;99.00;;;;;;5005956;28;20667;-84
2022/06/17 03:13:42;;;;;;;3.53;2.67;;;18.00;98.00;;;;;;5008789;28;20992;-84
2022/06/17 03:16:12;;;;;;;3.37;2.63;;;17.90;98.70;;;;;;5005955;28;20646;-82
2022/06/17 03:18:40;;;;;;;2.70;2.50;;;18.10;98.70;;;;;;5006628;28;20654;-79
2022/06/17 03:21:07;;;;;;;4.40;2.73;;;18.00;98.40;;;;;;5008353;28;20659;-80
2022/06/17 03:23:41;;;;;;;2.50;2.30;;;17.90;98.70;;;;;;5008983;28;20667;-82
2022/06/17 03:26:13;;;;;;;2.70;2.50;;;17.50;99.30;;;;;;5007965;28;20611;-82
2022/06/17 03:28:43;;;;;;;2.57;2.30;;;17.30;99.90;;;;;;5000314;28;20624;-80
2022/06/17 03:31:15;;;;;;;2.30;2.10;;;16.90;99.90;;;;;;5003738;28;20651;-80
2022/06/17 03:33:48;;;;;;;2.50;2.30;;;16.90;99.90;;;;;;5000303;28;20623;-80
2022/06/17 03:36:21;;;;;;;2.90;2.10;;;17.10;99.90;;;;;;4999586;28;20628;-80
2022/06/17 03:38:53;;;;;;;2.37;2.20;;;17.40;99.90;;;;;;5005420;28;20643;-80
2022/06/17 03:41:25;;;;;;;2.60;2.40;;;17.50;99.90;;;;;;5005674;28;21021;-83
2022/06/17 03:43:59;;;;;;;2.30;2.10;;;17.70;99.90;;;;;;5002291;28;20659;-81
2022/06/17 03:46:31;;;;;;;7.80;2.40;;;17.80;99.90;;;;;;5004262;28;20612;-81
2022/06/17 03:49:06;;;;;;;2.37;2.17;;;17.80;99.90;;;;;;5003897;28;21190;-81
2022/06/17 03:51:36;;;;;;;2.30;1.90;;;18.00;99.90;;;;;;5005147;28;20651;-81
2022/06/17 03:54:04;;;;;;;2.73;2.53;;;17.90;99.90;;;;;;5002795;28;20639;-81
2022/06/17 03:56:33;;;;;;;3.33;2.23;;;17.90;99.90;;;;;;5002842;28;21198;-81
2022/06/17 03:59:06;;;;;;;2.47;2.27;;;17.90;99.90;;;;;;5005685;28;20639;-81
2022/06/17 04:01:39;;;;;;;4.13;2.63;;;18.00;99.90;;;;;;4999874;28;20648;-81
2022/06/17 04:04:12;;;;;;;2.37;2.17;;;17.90;99.90;;;;;;5003086;28;20665;-81
2022/06/17 04:06:43;;;;;;;5.53;2.53;;;17.90;99.90;;;;;;4999661;28;20628;-81
2022/06/17 04:09:16;;;;;;;2.03;1.93;;;18.00;99.90;;;;;;5000890;28;20635;-81
2022/06/17 04:11:45;;;;;;;5.63;2.37;;;18.00;99.90;;;;;;5003163;28;20659;-81
2022/06/17 04:14:21;;;;;;;2.33;2.13;;;17.90;99.90;;;;;;4999879;28;20737;-81
2022/06/17 04:16:53;;;;;;;1.97;1.57;;;17.90;99.90;;;;;;5003065;28;20634;-80
2022/06/17 04:19:23;;;;;;;3.53;2.57;;;18.00;99.90;;;;;;5001799;28;20643;-80
2022/06/17 04:21:51;;;;;;;3.00;2.80;;;18.00;99.90;;;;;;5001106;28;21050;-80
2022/06/17 04:24:20;;;;;;;2.93;1.93;;;18.00;99.90;;;;;;5002864;28;20639;-80
2022/06/17 04:26:51;;;;;;;2.23;2.00;;;17.90;99.90;;;;;;5004855;28;20625;-81
2022/06/17 04:29:23;;;;;;;2.30;2.10;;;18.00;99.90;;;;;;5007682;28;20658;-81
2022/06/17 04:31:59;;;;;;;3.23;2.13;;;18.00;99.90;;;;;;5004958;28;20611;-79
2022/06/17 04:34:26;;;;;;;2.43;1.93;;;18.10;99.90;;;;;;5001204;28;21158;-79
2022/06/17 04:36:59;;;;;;;1.83;1.70;;;18.10;99.90;;;;;;5001660;28;20629;-79
2022/06/17 04:39:30;;;;;;;2.67;2.47;;;18.10;99.90;;;;;;5008646;28;21002;-81
2022/06/17 04:42:00;;;;;;;2.40;2.20;;;18.10;99.90;;;;;;5001309;28;20612;-81
2022/06/17 04:44:28;;;;;;;2.80;2.60;;;18.10;99.90;;;;;;5006159;28;20724;-81
2022/06/17 04:46:59;;;;;;;3.00;2.40;;;18.10;99.90;;;;;;4997731;28;20979;-80
2022/06/17 04:49:30;;;;;;;5.13;2.67;;;18.20;99.90;;;;;;5006168;28;20623;-80
2022/06/17 04:52:00;;;;;;;3.97;3.57;;;17.80;99.90;;;;;;5003897;28;20612;-80
2022/06/17 04:54:29;;;;;;;3.47;3.13;;;17.60;99.90;;;;;;5000440;28;20646;-82
2022/06/17 04:56:58;;;;;;;3.97;3.20;;;17.30;99.90;;;;;;5002354;28;20624;-82
2022/06/17 04:59:34;;;;;;;3.80;3.57;;;17.20;99.90;;;;;;5006219;28;20666;-81
2022/06/17 05:02:05;;;;;;;3.57;3.27;;;17.30;99.90;;;;;;5005163;28;21271;-82
2022/06/17 05:04:32;;;;;;;3.43;3.13;;;17.60;99.90;;;;;;5005829;28;20731;-82
2022/06/17 05:06:58;;;;;;;3.70;3.40;;;17.70;99.90;;;;;;5006409;28;20681;-82
2022/06/17 05:09:29;;;;;;;3.30;3.03;;;17.90;99.90;;;;;;5007337;28;20646;-82
2022/06/17 05:12:01;;;;;;;3.53;3.20;;;18.10;99.90;;;;;;5001802;28;20612;-82
2022/06/17 05:14:38;;;;;;;3.60;3.20;;;18.10;99.90;;;;;;5006729;28;20616;-82
2022/06/17 05:17:05;;;;;;;3.50;3.30;;;18.20;99.90;;;;;;5002569;28;20670;-81
2022/06/17 05:19:32;;;;;;;3.07;2.87;;;18.20;99.90;;;;;;5002237;28;20655;-82
2022/06/17 05:21:59;;;;;;;3.13;2.90;;;18.20;99.90;;;;;;5004280;28;20627;-82
2022/06/17 05:24:27;;;;;;;4.33;3.87;;;18.30;99.90;;;;;;5004333;28;20679;-81
2022/06/17 05:26:54;;;;;;;4.00;3.70;;;18.40;99.90;;;;;;5003443;28;21430;-80
2022/06/17 05:29:21;;;;;;;7.57;4.80;;;18.10;99.90;;;;;;5005210;28;20974;-81
2022/06/17 05:31:51;;;;;;;5.77;4.40;;;17.90;99.90;;;;;;5010737;28;20624;-81
2022/06/17 05:34:18;;;;;;;4.30;4.00;;;17.80;99.90;;;;;;5006716;28;21037;-80
2022/06/17 05:36:45;;;;;;;4.33;4.03;;;17.70;99.90;;;;;;5006638;28;20659;-81
2022/06/17 05:39:12;;;;;;;6.30;4.10;;;17.70;99.90;;;;;;5002867;28;20638;-81
2022/06/17 05:41:42;;;;;;;4.13;3.70;;;17.80;99.90;;;;;;5005483;28;20641;-82
2022/06/17 05:44:10;;;;;;;6.17;3.90;;;17.70;99.90;;;;;;5005840;28;20696;-81
2022/06/17 05:46:38;;;;;;;4.27;3.97;;;17.60;99.90;;;;;;5010028;28;20618;-81
2022/06/17 05:49:07;;;;;;;4.80;4.30;;;17.60;99.90;;;;;;5009449;28;20647;-82
2022/06/17 05:51:34;;;;;;;3.93;3.63;;;17.60;99.90;;;;;;5011281;28;20667;-80
2022/06/17 05:54:01;;;;;;;3.93;3.63;;;17.60;99.90;;;;;;5008008;28;20623;-82
2022/06/17 05:56:28;;;;;;;4.20;3.80;;;17.80;99.90;;;;;;5009701;28;20667;-82
2022/06/17 05:58:55;;;;;;;4.30;3.90;;;17.90;99.90;;;;;;5009323;28;21228;-82
2022/06/17 06:01:22;;;;;;;4.03;3.73;;;18.10;99.90;;;;;;5007312;28;20664;-82
2022/06/17 06:03:49;;;;;;;4.10;3.80;;;18.10;99.90;;;;;;5012713;28;20674;-82
2022/06/17 06:06:17;;;;;;;4.90;3.63;;;18.20;99.90;;;;;;5010236;28;20635;-82
2022/06/17 06:08:43;;;;;;;4.77;4.07;;;18.30;99.90;;;;;;5005532;28;20631;-82
2022/06/17 06:11:10;;;;;;;4.00;3.70;;;18.40;99.90;;;;;;5008436;28;20663;-82
2022/06/17 06:13:37;;;;;;;4.53;4.13;;;18.60;99.90;;;;;;5009023;28;20618;-82
2022/06/17 06:16:05;;;;;;;5.87;4.30;;;18.60;99.90;;;;;;5009142;28;20672;-82
2022/06/17 06:18:34;;;;;;;4.73;3.70;;;18.50;99.90;;;;;;5010821;28;20682;-82
2022/06/17 06:21:04;;;;;;;3.77;3.47;;;18.60;99.90;;;;;;5009625;28;20662;-81
2022/06/17 06:23:33;;;;;;;3.80;3.50;;;18.80;99.90;;;;;;5009282;28;20674;-82
2022/06/17 06:25:59;;;;;;;3.90;3.60;;;18.80;99.90;;;;;;5009441;28;20626;-82
2022/06/17 06:28:28;;;;;;;4.60;4.20;;;18.70;99.90;;;;;;5010151;28;20643;-82
2022/06/17 06:30:58;;;;;;;8.93;3.93;;;18.60;99.90;;;;;;5009631;28;20726;-82
2022/06/17 06:33:25;;;;;;;4.23;3.83;;;18.60;99.90;;;;;;5012050;28;20998;-82
2022/06/17 06:35:52;;;;;;;4.00;3.70;;;18.70;99.90;;;;;;5005455;28;20690;-82
2022/06/17 06:38:20;;;;;;;7.33;4.00;;;18.90;99.90;;;;;;5007980;28;21405;-82
2022/06/17 06:40:48;;;;;;;4.43;3.20;;;19.00;99.90;;;;;;5008443;28;20655;-82
2022/06/17 06:43:17;;;;;;;5.97;3.23;;;19.20;99.90;;;;;;5008515;28;21102;-82
2022/06/17 06:45:47;;;;;;;9.87;3.67;;;19.20;99.90;;;;;;5006206;28;20643;-82
2022/06/17 06:48:16;;;;;;;8.23;3.60;;;19.10;99.90;;;;;;5007620;28;20634;-82
2022/06/17 06:50:44;;;;;;;4.80;3.43;;;19.20;99.90;;;;;;5006480;28;20653;-82
2022/06/17 06:53:14;;;;;;;4.20;3.53;;;19.30;99.90;;;;;;4999121;28;21228;-81
2022/06/17 06:55:42;;;;;;;6.93;3.47;;;19.40;99.90;;;;;;5006523;28;20633;-80
2022/06/17 06:58:13;;;;;;;4.53;3.37;;;19.70;99.90;;;;;;5008582;28;20624;-80
2022/06/17 07:00:42;;;;;;;3.10;2.90;;;19.80;99.90;;;;;;5008907;28;21284;-81
2022/06/17 07:03:09;;;;;;;3.27;3.03;;;19.90;99.90;;;;;;5006949;28;20659;-81
2022/06/17 07:05:41;;;;;;;3.70;3.40;;;19.90;99.90;;;;;;5011366;28;21168;-81
2022/06/17 07:08:11;;;;;;;3.87;3.30;;;20.10;99.50;;;;;;5005731;28;20623;-80
2022/06/17 07:10:38;;;;;;;3.83;3.37;;;20.20;99.10;;;;;;5010983;28;20650;-80
2022/06/17 07:13:08;;;;;;;3.57;3.27;;;20.40;98.70;;;;;;5005958;28;20638;-81
2022/06/17 07:15:37;;;;;;;4.07;3.27;;;20.50;98.00;;;;;;5011841;28;20632;-81
2022/06/17 07:18:06;;;;;;;3.63;3.33;;;20.50;97.50;;;;;;5008581;28;20626;-82
2022/06/17 07:20:38;;;;;;;5.13;3.30;;;20.60;97.60;;;;;;5012284;28;20662;-82
2022/06/17 07:23:05;;;;;;;3.30;3.10;;;20.70;97.10;;;;;;5013411;28;20932;-80
2022/06/17 07:25:32;;;;;;;7.27;4.00;;;20.80;97.40;;;;;;5009685;28;20695;-80
2022/06/17 07:27:59;;;;;;;3.17;2.87;;;20.80;97.00;;;;;;5007554;28;20627;-81
2022/06/17 07:30:25;;;;;;;3.53;3.20;;;20.90;96.60;;;;;;5010045;28;20695;-81
2022/06/17 07:32:54;;;;;;;3.37;3.17;;;20.90;96.70;;;;;;5009687;28;20631;-81
2022/06/17 07:35:21;;;;;;;5.10;3.10;;;21.00;96.50;;;;;;5006705;28;21238;-80
2022/06/17 07:40:35;;;;;;;3.40;2.60;;;21.20;95.30;;;;;;5011302;28;21468;-80
2022/06/17 07:43:03;;;;;;;3.60;3.30;;;21.20;95.40;;;;;;5010604;28;20632;-80
2022/06/17 07:45:32;;;;;;;3.27;3.03;;;21.40;95.70;;;;;;5008956;28;20644;-81
2022/06/17 07:48:02;;;;;;;4.93;3.60;;;21.50;94.80;;;;;;5007942;28;20636;-81
2022/06/17 07:50:32;;;;;;;3.97;3.40;;;21.70;94.30;;;;;;5006628;28;20753;-80
2022/06/17 07:52:59;;;;;;;6.97;3.63;;;21.70;94.70;;;;;;5008827;28;21178;-80
2022/06/17 07:55:26;;;;;;;5.13;2.70;;;21.80;94.90;;;;;;5009983;28;20627;-80
2022/06/17 07:57:53;;;;;;;3.20;3.00;;;21.80;94.10;;;;;;5007544;28;20645;-81
2022/06/17 08:00:23;;;;;;;3.17;2.70;;;21.90;93.50;;;;;;5010857;28;20654;-80
2022/06/17 08:02:50;;;;;;;3.70;3.40;;;22.00;93.70;;;;;;5003310;28;20747;-80
2022/06/17 08:05:19;;;;;;;3.47;3.17;;;22.20;93.10;;;;;;5007965;28;20721;-80
2022/06/17 08:07:46;;;;;;;3.00;2.87;;;22.10;93.30;;;;;;5010124;28;20638;-81
2022/06/17 08:10:15;;;;;;;2.90;2.70;;;22.20;93.40;;;;;;5005278;28;21010;-81
2022/06/17 08:12:42;;;;;;;3.43;3.10;;;22.20;93.20;;;;;;5005830;28;20614;-80
2022/06/17 08:15:12;;;;;;;3.77;3.47;;;22.30;93.00;;;;;;5003594;28;20627;-80
2022/06/17 08:17:39;;;;;;;6.43;3.00;;;22.40;92.40;;;;;;5003349;28;20624;-81
2022/06/17 08:20:09;;;;;;;3.70;3.40;;;22.50;92.00;;;;;;5009752;28;20700;-81
2022/06/17 08:22:38;;;;;;;5.10;3.57;;;22.60;92.10;;;;;;5009102;28;21219;-81
2022/06/17 08:25:06;;;;;;;3.63;3.13;;;22.60;91.90;;;;;;5006224;28;20674;-80
2022/06/17 08:27:40;;;;;;;3.33;2.83;;;22.60;92.10;;;;;;5006000;28;21041;-81
2022/06/17 08:30:09;;;;;;;2.87;2.67;;;22.80;92.10;;;;;;5004991;28;20739;-81
2022/06/17 08:32:48;;;;;;;3.17;2.87;;;22.80;91.30;;;;;;5005062;28;20622;-81
2022/06/17 08:35:17;;;;;;;3.80;3.50;;;22.90;91.80;;;;;;5005193;28;20680;-81
2022/06/17 08:37:47;;;;;;;3.43;2.90;;;23.00;90.00;;;;;;5010216;28;20638;-81
2022/06/17 08:40:33;;;;;;;2.73;2.40;;;23.00;90.10;;;;;;5006182;28;20659;-81
2022/06/17 08:43:16;;;;;;;6.37;3.00;;;23.10;90.00;;;;;;5006474;28;20626;-81
2022/06/17 08:45:53;;;;;;;3.10;2.90;;;23.40;90.00;;;;;;4999038;28;20611;-81
2022/06/17 08:48:32;;;;;;;4.10;2.80;;;23.50;88.70;;;;;;5002585;28;20612;-81
2022/06/17 08:51:07;;;;;;;2.83;2.63;;;23.50;87.70;;;;;;5005251;28;20648;-81
2022/06/17 08:53:55;;;;;;;4.37;3.97;;;23.60;87.60;;;;;;5008188;28;20643;-81
2022/06/17 08:56:28;;;;;;;5.93;2.87;;;23.70;87.50;;;;;;5002794;28;20654;-81
2022/06/17 08:59:04;;;;;;;3.20;2.90;;;23.80;86.20;;;;;;5007609;28;20616;-81
2022/06/17 09:01:42;;;;;;;3.27;3.07;;;23.90;86.30;;;;;;5010360;28;20674;-82
2022/06/17 09:04:20;;;;;;;5.13;3.00;;;23.80;85.70;;;;;;5008500;28;21443;-81
2022/06/17 09:06:56;;;;;;;5.60;3.23;;;24.00;87.20;;;;;;5009135;28;20638;-82
2022/06/17 09:09:53;;;;;;;3.37;3.07;;;24.00;86.10;;;;;;5010536;28;20628;-82
2022/06/17 09:12:32;;;;;;;3.00;2.80;;;24.00;86.10;;;;;;5005980;28;20646;-82
2022/06/17 09:15:09;;;;;;;4.27;3.27;;;24.10;85.50;;;;;;5007134;28;21021;-82
2022/06/17 09:17:44;;;;;;;6.50;3.23;;;24.20;85.40;;;;;;5008873;28;20633;-82
2022/06/17 09:20:17;;;;;;;3.83;3.53;;;24.10;84.70;;;;;;5010039;28;20651;-82
2022/06/17 09:22:51;;;;;;;3.10;2.70;;;24.20;84.40;;;;;;5005530;28;21135;-82
2022/06/17 09:25:29;;;;;;;5.77;3.60;;;24.30;83.90;;;;;;5005525;28;21069;-82
2022/06/17 09:27:58;;;;;;;2.60;2.40;;;24.50;83.30;;;;;;5007615;28;20619;-82
2022/06/17 09:30:29;;;;;;;4.83;2.47;;;24.70;81.40;;;;;;5011969;28;20678;-82
2022/06/17 09:33:03;;;;;;;3.20;2.90;;;24.80;80.70;;;;;;5017938;28;21181;-81
2022/06/17 09:35:36;;;;;;;2.60;2.50;;;25.00;79.00;;;;;;5011283;28;20635;-81
2022/06/17 09:38:10;;;;;;;5.40;3.33;;;25.10;78.00;;;;;;5011823;28;21209;-82
2022/06/17 09:40:41;;;;;;;2.70;2.50;;;25.20;76.10;;;;;;5012066;28;21318;-81
2022/06/17 09:43:15;;;;;;;2.37;2.17;;;25.30;75.00;;;;;;5002122;28;20643;-82
2022/06/17 09:45:48;;;;;;;2.10;1.87;;;25.40;75.80;;;;;;5006764;28;20666;-82
2022/06/17 09:48:21;;;;;;;2.93;1.93;;;25.60;75.20;;;;;;5012449;28;20639;-82
2022/06/17 09:50:52;;;;;;;8.10;3.17;;;25.70;75.40;;;;;;5007540;28;20690;-82
2022/06/17 09:53:24;;;;;;;2.90;2.70;;;25.80;74.20;;;;;;5009581;28;20647;-82
2022/06/17 09:55:58;;;;;;;2.47;2.27;;;25.80;71.90;;;;;;5007606;28;20632;-82
2022/06/17 09:58:30;;;;;;;2.50;2.30;;;25.70;71.00;;;;;;5013643;28;20639;-82
2022/06/17 10:00:59;;;;;;;2.37;2.17;;;25.50;70.70;;;;;;5010478;28;20654;-82
2022/06/17 10:03:28;;;;;;;1.80;1.70;;;25.30;71.60;;;;;;5013930;28;20619;-79
2022/06/17 10:06:03;;;;;;;2.63;2.13;;;25.40;71.60;;;;;;5008940;28;21394;-82
2022/06/17 10:08:40;;;;;;;2.00;1.90;;;25.50;70.90;;;;;;5013241;28;20637;-82
2022/06/17 10:11:16;;;;;;;5.20;2.30;;;25.60;71.20;;;;;;5009294;28;20666;-82
2022/06/17 10:13:51;;;;;;;1.73;1.60;;;25.80;72.00;;;;;;5006582;28;20637;-82
2022/06/17 10:19:28;;;;;;;3.30;2.27;;;26.10;70.20;;;;;;5005251;28;20606;-81
2022/06/17 10:22:06;;;;;;;4.80;2.13;;;26.30;69.50;;;;;;5008938;28;20607;-81
2022/06/17 10:24:46;;;;;;;2.23;2.07;;;26.30;67.10;;;;;;5007267;28;20667;-81
2022/06/17 10:27:27;;;;;;;4.17;2.20;;;26.20;67.00;;;;;;5008280;28;20627;-82
2022/06/17 10:30:05;;;;;;;2.43;1.90;;;26.20;68.00;;;;;;5012007;28;20677;-81
2022/06/17 10:32:35;;;;;;;2.50;1.80;;;26.30;67.30;;;;;;5011117;28;20639;-81
2022/06/17 10:35:04;;;;;;;1.77;1.67;;;26.40;67.10;;;;;;5009283;28;21186;-80
2022/06/17 10:37:35;;;;;;;1.70;1.60;;;26.60;64.50;;;;;;5013392;28;21190;-80
2022/06/17 10:40:04;;;;;;;2.50;2.20;;;26.70;65.00;;;;;;5010907;28;21206;-82
2022/06/17 10:42:33;;;;;;;5.40;1.60;;;26.90;64.50;;;;;;5013413;28;20631;-83
2022/06/17 10:45:02;;;;;;;3.17;1.77;;;27.10;61.60;;;;;;5008351;28;20767;-82
2022/06/17 10:47:38;;;;;;;2.50;2.30;;;27.20;60.10;;;;;;5011221;28;20643;-79
2022/06/17 10:50:12;;;;;;;3.70;1.80;;;27.20;59.40;;;;;;5004253;28;21249;-79
2022/06/17 10:52:44;;;;;;;2.50;2.30;;;27.40;61.10;;;;;;5007045;28;20620;-80
2022/06/17 10:55:18;;;;;;;3.30;2.20;;;27.70;61.30;;;;;;5009234;28;21002;-80
2022/06/17 10:58:09;;;;;;;3.63;2.63;;;28.00;59.50;;;;;;5006156;28;20619;-79
2022/06/17 11:00:44;;;;;;;3.00;1.80;;;27.90;58.50;;;;;;5011985;28;20650;-80
2022/06/17 11:03:21;;;;;;;2.07;1.90;;;28.30;58.80;;;;;;5016417;28;20630;-80
2022/06/17 11:05:55;;;;;;;2.70;2.50;;;28.50;58.70;;;;;;5015322;28;20701;-80
2022/06/17 11:08:25;;;;;;;2.30;1.90;;;28.70;57.00;;;;;;5012377;28;21129;-80
2022/06/17 11:10:54;;;;;;;2.53;2.23;;;28.80;56.40;;;;;;5008033;28;21432;-80
2022/06/17 11:13:23;;;;;;;2.60;2.40;;;29.00;56.20;;;;;;5009107;28;21030;-80
2022/06/17 11:15:55;;;;;;;3.10;2.90;;;29.10;56.00;;;;;;5010576;28;20638;-80
2022/06/17 11:18:26;;;;;;;3.00;2.80;;;29.20;55.80;;;;;;5010276;28;21519;-79
2022/06/17 11:20:57;;;;;;;2.83;2.67;;;29.20;53.90;;;;;;5008032;28;20660;-80
2022/06/17 11:23:27;;;;;;;2.13;2.00;;;29.20;53.80;;;;;;5011868;28;20639;-79
2022/06/17 11:26:10;;;;;;;3.93;2.30;;;29.60;54.80;;;;;;5008292;28;20667;-79
2022/06/17 11:28:41;;;;;;;3.23;2.10;;;29.90;53.20;;;;;;5014332;28;21081;-79
2022/06/17 11:31:14;;;;;;;2.30;2.10;;;30.00;53.00;;;;;;5005903;28;20664;-80
2022/06/17 11:33:57;;;;;;;2.70;2.00;;;30.30;53.80;;;;;;5008533;28;20613;-79
2022/06/17 11:36:31;;;;;;;3.10;2.10;;;30.70;52.30;;;;;;5010053;28;20628;-79
2022/06/17 11:39:19;;;;;;;3.33;1.67;;;30.70;50.90;;;;;;5009269;28;20620;-79
2022/06/17 11:41:48;;;;;;;3.47;2.40;;;30.70;49.50;;;;;;5009720;28;20638;-79
2022/06/17 11:44:18;;;;;;;3.03;2.73;;;30.90;49.30;;;;;;5007072;28;20628;-79
2022/06/17 11:46:50;;;;;;;2.57;2.40;;;31.10;48.40;;;;;;5010233;28;20628;-79
2022/06/17 11:49:19;;;;;;;2.47;2.27;;;31.40;49.50;;;;;;5006194;28;20643;-79
2022/06/17 11:51:51;;;;;;;2.70;2.50;;;31.90;47.80;;;;;;5003941;28;20627;-78
2022/06/17 11:54:26;;;;;;;3.67;3.47;;;32.20;46.80;;;;;;5007584;28;20627;-79
2022/06/17 11:56:54;;;;;;;2.00;1.90;;;32.50;45.80;;;;;;5010368;28;20721;-79
2022/06/17 11:59:24;;;;;;;1.97;1.87;;;32.90;45.10;;;;;;5013233;28;20733;-80
2022/06/17 12:02:05;;;;;;;2.90;2.70;;;33.20;43.40;;;;;;5007688;28;20623;-79
2022/06/17 12:04:41;;;;;;;3.00;2.43;;;33.20;41.90;;;;;;5010545;28;21115;-79
2022/06/17 12:07:34;;;;;;;6.17;3.00;;;33.30;41.70;;;;;;5009442;28;20622;-79
2022/06/17 12:10:13;;;;;;;2.97;2.77;;;33.40;40.90;;;;;;5006503;28;20651;-80
2022/06/17 12:12:41;;;;;;;2.60;1.73;;;33.70;41.20;;;;;;5001691;28;21004;-79
2022/06/17 12:15:19;;;;;;;2.70;1.87;;;33.90;41.10;;;;;;5004159;28;20706;-79
2022/06/17 12:17:47;;;;;;;2.87;1.90;;;34.30;39.90;;;;;;5005113;28;20657;-79
2022/06/17 12:20:23;;;;;;;2.17;1.53;;;34.40;39.70;;;;;;5003768;28;21296;-80
2022/06/17 12:22:58;;;;;;;3.37;2.00;;;34.50;39.00;;;;;;5006711;28;20646;-79
2022/06/17 12:25:36;;;;;;;1.60;1.50;;;34.60;38.30;;;;;;5010249;28;20685;-80
2022/06/17 12:28:08;;;;;;;2.20;1.90;;;34.60;39.00;;;;;;5010384;28;20626;-79
2022/06/17 12:30:44;;;;;;;3.87;2.40;;;34.20;38.30;;;;;;5010045;28;21051;-79
2022/06/17 12:33:18;;;;;;;1.70;1.60;;;34.00;38.40;;;;;;5008242;28;20638;-79
2022/06/17 12:35:47;;;;;;;3.40;1.63;;;33.90;38.10;;;;;;5006844;28;20642;-79
2022/06/17 12:38:23;;;;;;;2.50;1.90;;;34.00;37.60;;;;;;5003801;28;20641;-79
2022/06/17 12:40:56;;;;;;;1.83;1.57;;;34.20;37.30;;;;;;5007300;28;20646;-79
2022/06/17 12:43:36;;;;;;;1.80;1.70;;;34.20;36.70;;;;;;5009224;28;20646;-80
2022/06/17 12:46:09;;;;;;;1.57;1.43;;;34.50;37.10;;;;;;5008732;28;20639;-80
2022/06/17 12:48:44;;;;;;;1.73;1.63;;;34.90;37.10;;;;;;5004036;28;20631;-80
2022/06/17 12:54:22;;;;;;;1.77;1.67;;;35.80;36.70;;;;;;5007585;28;20614;-80
2022/06/17 12:57:01;;;;;;;3.30;1.80;;;35.90;34.20;;;;;;5016940;28;20629;-80
2022/06/17 12:59:46;;;;;;;1.57;1.47;;;35.90;35.30;;;;;;5013100;28;20298;-80
2022/06/17 13:02:18;;;;;;;4.07;2.20;;;36.10;34.40;;;;;;5007037;28;20615;-80
2022/06/17 13:05:13;;;;;;;1.73;1.20;;;36.30;34.80;;;;;;5004829;28;20783;-80
2022/06/17 13:08:01;;;;;;;4.20;1.60;;;36.60;34.50;;;;;;5011110;28;20203;-80
2022/06/17 13:10:40;;;;;;;4.30;1.60;;;36.70;32.70;;;;;;5014274;28;20235;-81
2022/06/17 13:13:19;;;;;;;1.30;1.20;;;36.90;33.90;;;;;;5010535;28;20218;-81
2022/06/17 13:15:50;;;;;;;5.72;1.80;;;37.30;33.10;;;;;;5009406;28;20199;-81
2022/06/17 13:18:25;;;;;;;2.13;1.48;;;37.70;33.10;;;;;;5009061;28;20307;-81
2022/06/17 13:20:59;;;;;;;2.42;1.70;;;37.50;31.30;;;;;;5012170;28;20227;-80